createdAt,value
2023-05-14T00:00:44.764Z,60.19
2023-05-14T00:03:12.443Z,61.76
2023-05-14T00:05:39.664Z,60.96
2023-05-14T00:08:06.899Z,61.67
2023-05-14T00:10:34.423Z,63.97
2023-05-14T00:13:01.578Z,61.29
2023-05-14T00:15:28.735Z,60.66
2023-05-14T00:17:56.187Z,63.08
2023-05-14T00:20:23.631Z,60.40
2023-05-14T00:22:50.902Z,61.13
2023-05-14T00:25:18.421Z,59.50
2023-05-14T00:27:46.014Z,62.96
2023-05-14T00:30:13.169Z,64.00
2023-05-14T00:32:40.541Z,60.50
2023-05-14T00:35:07.929Z,60.51
2023-05-14T00:37:36.372Z,62.50
2023-05-14T00:40:04.411Z,59.12
2023-05-14T00:42:31.561Z,62.04
2023-05-14T00:44:58.755Z,63.13
2023-05-14T00:47:26.423Z,63.71
2023-05-14T00:49:53.570Z,63.81
2023-05-14T00:52:20.757Z,61.56
2023-05-14T00:54:48.214Z,63.90
2023-05-14T00:57:15.361Z,63.55
2023-05-14T00:59:42.850Z,63.24
2023-05-14T01:02:10.771Z,60.48
2023-05-14T01:04:38.131Z,62.36
2023-05-14T01:07:05.301Z,63.85
2023-05-14T01:09:36.735Z,62.34
2023-05-14T01:12:07.028Z,64.13
2023-05-14T01:14:49.055Z,63.23
2023-05-14T01:17:16.221Z,60.69
2023-05-14T01:19:44.022Z,60.03
2023-05-14T01:22:12.171Z,61.90
2023-05-14T01:24:39.386Z,61.18
2023-05-14T01:27:25.654Z,59.27
2023-05-14T01:30:16.108Z,59.81
2023-05-14T01:32:44.085Z,61.23
2023-05-14T01:35:11.405Z,64.38
2023-05-14T01:37:38.639Z,65.23
2023-05-14T01:40:06.780Z,63.86
2023-05-14T01:42:33.980Z,62.03
2023-05-14T01:45:01.116Z,62.80
2023-05-14T01:47:28.655Z,61.92
2023-05-14T01:49:55.817Z,63.33
2023-05-14T01:52:22.997Z,64.09
2023-05-14T01:54:50.496Z,63.83
2023-05-14T01:57:17.752Z,65.35
2023-05-14T01:59:44.926Z,62.52
2023-05-14T02:02:12.322Z,64.59
2023-05-14T02:04:39.732Z,62.94
2023-05-14T02:07:06.935Z,61.88
2023-05-14T02:09:34.123Z,62.94
2023-05-14T02:12:01.636Z,63.44
2023-05-14T02:14:29.078Z,63.58
2023-05-14T02:16:56.325Z,63.51
2023-05-14T02:19:23.575Z,59.97
2023-05-14T02:21:50.962Z,60.49
2023-05-14T02:24:18.099Z,62.82
2023-05-14T02:26:45.248Z,63.28
2023-05-14T02:29:12.704Z,61.10
2023-05-14T02:31:39.947Z,60.83
2023-05-14T02:34:07.321Z,60.92
2023-05-14T02:36:35.245Z,62.80
2023-05-14T02:39:02.525Z,61.34
2023-05-14T02:41:29.681Z,58.82
2023-05-14T02:43:57.435Z,59.57
2023-05-14T02:46:24.802Z,61.77
2023-05-14T02:48:52.046Z,57.50
2023-05-14T02:51:20.191Z,59.51
2023-05-14T02:53:47.314Z,58.67
2023-05-14T02:56:14.630Z,60.54
2023-05-14T02:58:42.249Z,63.51
2023-05-14T03:01:09.503Z,64.40
2023-05-14T03:03:38.236Z,63.50
2023-05-14T03:06:06.215Z,63.49
2023-05-14T03:08:33.415Z,61.26
2023-05-14T03:11:00.620Z,61.58
2023-05-14T03:13:28.228Z,64.62
2023-05-14T03:15:55.721Z,59.57
2023-05-14T03:18:23.063Z,61.78
2023-05-14T03:20:50.487Z,62.93
2023-05-14T03:23:17.612Z,61.14
2023-05-14T03:25:45.335Z,62.09
2023-05-14T03:28:12.735Z,61.19
2023-05-14T03:30:40.013Z,61.48
2023-05-14T03:33:07.370Z,63.32
2023-05-14T03:35:35.124Z,63.59
2023-05-14T03:38:02.546Z,60.97
2023-05-14T03:40:31.201Z,62.00
2023-05-14T03:42:58.704Z,61.21
2023-05-14T03:45:28.656Z,60.59
2023-05-14T03:47:59.332Z,61.73
2023-05-14T03:50:27.062Z,60.97
2023-05-14T03:52:55.053Z,60.82
2023-05-14T03:55:23.294Z,59.98
2023-05-14T03:57:50.790Z,60.87
2023-05-14T04:00:18.162Z,63.17
2023-05-14T04:02:45.381Z,61.27
2023-05-14T04:05:13.019Z,62.68
2023-05-14T04:07:40.280Z,61.57
2023-05-14T04:10:07.719Z,63.38
2023-05-14T04:12:35.394Z,62.56
2023-05-14T04:15:03.135Z,62.13
2023-05-14T04:17:30.347Z,63.05
2023-05-14T04:19:57.758Z,65.32
2023-05-14T04:22:25.722Z,62.95
2023-05-14T04:24:53.271Z,61.63
2023-05-14T04:27:23.722Z,61.99
2023-05-14T04:29:50.931Z,64.46
2023-05-14T04:32:18.326Z,63.03
2023-05-14T04:34:46.955Z,63.45
2023-05-14T04:37:14.325Z,63.67
2023-05-14T04:39:41.524Z,64.11
2023-05-14T04:42:09.000Z,63.76
2023-05-14T04:44:37.581Z,63.11
2023-05-14T04:47:04.783Z,61.61
2023-05-14T04:49:32.220Z,61.10
2023-05-14T04:51:59.441Z,63.62
2023-05-14T04:54:26.676Z,61.47
2023-05-14T04:56:55.904Z,60.69
2023-05-14T04:59:23.023Z,64.04
2023-05-14T05:01:51.681Z,63.33
2023-05-14T05:04:19.297Z,63.11
2023-05-14T05:06:46.557Z,63.06
2023-05-14T05:09:14.106Z,62.09
2023-05-14T05:11:41.555Z,62.42
2023-05-14T05:14:08.735Z,61.31
2023-05-14T05:16:36.137Z,62.65
2023-05-14T05:19:03.638Z,61.19
2023-05-14T05:21:30.818Z,61.33
2023-05-14T05:23:57.976Z,62.68
2023-05-14T05:26:26.903Z,61.90
2023-05-14T05:28:54.107Z,60.91
2023-05-14T05:31:21.358Z,63.42
2023-05-14T05:33:48.860Z,61.33
2023-05-14T05:36:16.067Z,61.66
2023-05-14T05:38:43.308Z,61.63
2023-05-14T05:41:11.545Z,63.62
2023-05-14T05:43:38.693Z,61.94
2023-05-14T05:46:06.727Z,62.30
2023-05-14T05:48:34.286Z,62.60
2023-05-14T05:51:01.536Z,63.59
2023-05-14T05:53:28.689Z,62.79
2023-05-14T05:55:57.086Z,61.22
2023-05-14T05:58:24.261Z,60.07
2023-05-14T06:00:51.533Z,61.30
2023-05-14T06:03:19.232Z,59.21
2023-05-14T06:05:46.807Z,59.19
2023-05-14T06:08:14.139Z,64.07
2023-05-14T06:10:41.555Z,60.60
2023-05-14T06:13:08.729Z,63.00
2023-05-14T06:15:35.903Z,61.12
2023-05-14T06:18:03.418Z,58.50
2023-05-14T06:20:30.622Z,57.89
2023-05-14T06:22:58.073Z,58.68
2023-05-14T06:25:25.549Z,58.95
2023-05-14T06:27:52.686Z,58.28
2023-05-14T06:30:19.879Z,58.87
2023-05-14T06:32:47.384Z,59.51
2023-05-14T06:35:14.684Z,59.46
2023-05-14T06:37:42.217Z,60.20
2023-05-14T06:40:10.786Z,59.00
2023-05-14T06:42:38.174Z,58.24
2023-05-14T06:45:05.771Z,57.76
2023-05-14T06:47:33.486Z,60.07
2023-05-14T06:50:01.937Z,59.78
2023-05-14T06:52:29.616Z,60.91
2023-05-14T06:54:57.051Z,61.46
2023-05-14T06:57:24.340Z,60.49
2023-05-14T06:59:51.506Z,61.61
2023-05-14T07:02:18.921Z,61.91
2023-05-14T07:04:46.671Z,60.61
2023-05-14T07:07:15.543Z,60.74
2023-05-14T07:09:43.170Z,59.82
2023-05-14T07:12:10.397Z,59.82
2023-05-14T07:14:37.661Z,59.18
2023-05-14T07:17:05.142Z,62.85
2023-05-14T07:19:32.365Z,59.96
2023-05-14T07:21:59.517Z,61.99
2023-05-14T07:24:26.965Z,62.82
2023-05-14T07:26:54.581Z,62.34
2023-05-14T07:29:21.691Z,62.44
2023-05-14T07:31:49.161Z,60.71
2023-05-14T07:34:16.404Z,59.35
2023-05-14T07:36:43.551Z,60.29
2023-05-14T07:39:11.031Z,61.68
2023-05-14T07:41:38.586Z,61.99
2023-05-14T07:44:05.812Z,63.01
2023-05-14T07:46:33.228Z,63.97
2023-05-14T07:49:00.374Z,63.53
2023-05-14T07:51:28.517Z,61.60
2023-05-14T07:53:56.035Z,60.11
2023-05-14T07:56:23.213Z,58.93
2023-05-14T07:58:51.006Z,62.67
2023-05-14T08:01:18.619Z,63.65
2023-05-14T08:03:46.156Z,63.17
2023-05-14T08:06:13.340Z,59.08
2023-05-14T08:08:40.915Z,61.75
2023-05-14T08:11:08.545Z,61.91
2023-05-14T08:13:35.730Z,63.00
2023-05-14T08:16:02.913Z,62.79
2023-05-14T08:18:30.413Z,62.57
2023-05-14T08:20:57.900Z,63.14
2023-05-14T08:23:25.356Z,62.75
2023-05-14T08:25:52.822Z,64.07
2023-05-14T08:28:20.041Z,64.61
2023-05-14T08:30:47.631Z,63.88
2023-05-14T08:33:15.117Z,60.12
2023-05-14T08:35:42.244Z,62.38
2023-05-14T08:38:09.417Z,61.00
2023-05-14T08:40:36.938Z,60.88
2023-05-14T08:43:04.136Z,61.21
2023-05-14T08:45:34.436Z,63.54
2023-05-14T08:48:02.116Z,60.60
2023-05-14T08:50:30.598Z,60.98
2023-05-14T08:52:58.445Z,62.17
2023-05-14T08:55:26.188Z,63.85
2023-05-14T08:57:53.734Z,64.29
2023-05-14T09:00:21.026Z,64.55
2023-05-14T09:02:48.824Z,63.77
2023-05-14T09:05:16.014Z,59.94
2023-05-14T09:07:43.288Z,62.36
2023-05-14T09:10:10.770Z,60.70
2023-05-14T09:12:38.013Z,60.75
2023-05-14T09:15:05.542Z,60.73
2023-05-14T09:17:33.010Z,61.49
2023-05-14T09:20:00.326Z,61.91
2023-05-14T09:22:29.195Z,62.25
2023-05-14T09:25:06.766Z,60.95
2023-05-14T09:27:34.277Z,61.75
2023-05-14T09:30:05.158Z,60.32
2023-05-14T09:32:35.818Z,61.62
2023-05-14T09:35:19.708Z,62.89
2023-05-14T09:37:53.763Z,61.35
2023-05-14T09:40:22.293Z,63.98
2023-05-14T09:42:49.799Z,62.25
2023-05-14T09:45:17.091Z,63.19
2023-05-14T09:47:45.225Z,60.57
2023-05-14T09:50:12.757Z,63.83
2023-05-14T09:52:40.060Z,64.85
2023-05-14T09:55:08.105Z,61.86
2023-05-14T09:57:35.450Z,59.90
2023-05-14T10:00:02.809Z,60.37
2023-05-14T10:02:37.846Z,63.19
2023-05-14T10:05:06.459Z,63.77
2023-05-14T10:07:38.631Z,64.02
2023-05-14T10:10:07.839Z,63.95
2023-05-14T10:12:36.316Z,64.15
2023-05-14T10:15:04.922Z,64.63
2023-05-14T10:17:32.722Z,66.39
2023-05-14T10:19:59.978Z,66.61
2023-05-14T10:22:27.810Z,66.28
2023-05-14T10:24:55.432Z,67.14
2023-05-14T10:27:22.635Z,66.70
2023-05-14T10:29:56.354Z,64.97
2023-05-14T10:32:25.633Z,65.02
2023-05-14T10:34:53.729Z,65.45
2023-05-14T10:37:25.567Z,63.58
2023-05-14T10:39:53.849Z,63.68
2023-05-14T10:42:23.976Z,61.80
2023-05-14T10:44:58.887Z,61.16
2023-05-14T10:47:26.382Z,60.57
2023-05-14T10:49:57.745Z,64.44
2023-05-14T10:52:24.967Z,65.30
2023-05-14T10:54:52.789Z,66.21
2023-05-14T10:57:20.637Z,64.00
2023-05-14T10:59:48.785Z,62.90
2023-05-14T11:02:25.364Z,66.80
2023-05-14T11:04:53.360Z,65.92
2023-05-14T11:07:23.085Z,62.81
2023-05-14T11:09:50.710Z,63.14
2023-05-14T11:12:18.179Z,63.59
2023-05-14T11:14:45.554Z,65.35
2023-05-14T11:17:12.791Z,63.27
2023-05-14T11:19:39.984Z,63.06
2023-05-14T11:22:08.106Z,63.47
2023-05-14T11:24:35.374Z,65.63
2023-05-14T11:27:02.652Z,65.27
2023-05-14T11:29:30.220Z,64.06
2023-05-14T11:31:57.407Z,59.66
2023-05-14T11:34:24.637Z,62.81
2023-05-14T11:36:52.051Z,63.27
2023-05-14T11:39:19.338Z,59.14
2023-05-14T11:41:46.454Z,61.10
2023-05-14T11:44:13.959Z,59.64
2023-05-14T11:46:41.349Z,60.77
2023-05-14T11:49:08.559Z,61.41
2023-05-14T11:51:36.071Z,58.63
2023-05-14T11:54:04.047Z,59.99
2023-05-14T11:56:31.168Z,62.32
2023-05-14T11:58:58.595Z,59.70
2023-05-14T12:01:25.772Z,60.18
2023-05-14T12:03:53.253Z,60.27
2023-05-14T12:06:20.563Z,63.28
2023-05-14T12:08:48.995Z,64.15
2023-05-14T12:11:21.049Z,63.40
2023-05-14T12:13:48.187Z,64.53
2023-05-14T12:16:15.961Z,66.01
2023-05-14T12:18:43.489Z,66.24
2023-05-14T12:21:12.062Z,65.59
2023-05-14T12:23:39.624Z,66.53
2023-05-14T12:26:08.233Z,65.94
2023-05-14T12:28:38.215Z,62.97
2023-05-14T12:31:05.906Z,69.10
2023-05-14T12:33:33.408Z,68.88
2023-05-14T12:36:10.002Z,67.37
2023-05-14T12:38:41.637Z,68.27
2023-05-14T12:41:08.853Z,68.01
2023-05-14T12:43:36.046Z,66.74
2023-05-14T12:46:03.507Z,67.51
2023-05-14T12:48:31.363Z,65.48
2023-05-14T12:50:58.495Z,68.46
2023-05-14T12:53:26.225Z,71.26
2023-05-14T12:55:53.536Z,72.16
2023-05-14T12:58:20.846Z,71.91
2023-05-14T13:00:48.284Z,68.17
2023-05-14T13:03:17.759Z,69.35
2023-05-14T13:05:44.877Z,71.37
2023-05-14T13:08:14.796Z,72.79
2023-05-14T13:10:42.016Z,72.12
2023-05-14T13:13:09.189Z,70.77
2023-05-14T13:15:36.694Z,72.42
2023-05-14T13:18:04.280Z,70.31
2023-05-14T13:20:31.447Z,69.30
2023-05-14T13:22:58.879Z,69.50
2023-05-14T13:25:26.237Z,69.25
2023-05-14T13:27:53.514Z,71.86
2023-05-14T13:30:20.977Z,68.59
2023-05-14T13:32:48.225Z,71.53
2023-05-14T13:35:15.457Z,70.86
2023-05-14T13:37:43.254Z,72.75
2023-05-14T13:40:11.092Z,71.83
2023-05-14T13:42:39.877Z,70.79
2023-05-14T13:45:07.728Z,70.00
2023-05-14T13:47:36.076Z,69.88
2023-05-14T13:50:03.454Z,71.99
2023-05-14T13:52:31.539Z,73.15
2023-05-14T13:54:58.717Z,74.73
2023-05-14T13:57:26.461Z,70.49
2023-05-14T13:59:56.764Z,72.41
2023-05-14T14:02:23.978Z,71.55
2023-05-14T14:04:51.409Z,73.53
2023-05-14T14:07:18.824Z,75.86
2023-05-14T14:09:46.139Z,71.39
2023-05-14T14:12:13.700Z,73.92
2023-05-14T14:14:41.101Z,73.08
2023-05-14T14:17:09.076Z,75.68
2023-05-14T14:19:36.711Z,75.71
2023-05-14T14:22:12.663Z,76.20
2023-05-14T14:24:40.196Z,76.10
2023-05-14T14:27:07.837Z,74.68
2023-05-14T14:29:35.555Z,74.85
2023-05-14T14:32:04.693Z,75.54
2023-05-14T14:34:31.909Z,71.88
2023-05-14T14:36:59.064Z,74.01
2023-05-14T14:39:27.011Z,73.99
2023-05-14T14:41:54.164Z,75.84
2023-05-14T14:44:21.308Z,77.58
2023-05-14T14:46:48.709Z,77.08
2023-05-14T14:49:15.866Z,75.41
2023-05-14T14:51:43.143Z,74.34
2023-05-14T14:54:10.646Z,78.02
2023-05-14T14:56:37.881Z,78.43
2023-05-14T14:59:05.036Z,79.41
2023-05-14T15:01:32.528Z,79.20
2023-05-14T15:03:59.707Z,78.89
2023-05-14T15:06:26.864Z,76.15
2023-05-14T15:08:54.339Z,75.64
2023-05-14T15:11:22.086Z,75.04
2023-05-14T15:13:49.268Z,78.16
2023-05-14T15:16:16.797Z,79.15
2023-05-14T15:18:44.054Z,79.06
2023-05-14T15:21:11.244Z,78.81
2023-05-14T15:23:38.649Z,78.75
2023-05-14T15:26:05.910Z,80.08
2023-05-14T15:28:33.299Z,77.63
2023-05-14T15:31:02.465Z,78.02
2023-05-14T15:33:29.665Z,78.20
2023-05-14T15:35:56.812Z,76.44
2023-05-14T15:38:24.267Z,78.03
2023-05-14T15:40:51.891Z,76.08
2023-05-14T15:43:19.074Z,76.89
2023-05-14T15:45:46.557Z,74.97
2023-05-14T15:48:13.815Z,72.93
2023-05-14T15:50:41.903Z,75.04
2023-05-14T15:53:09.374Z,76.47
2023-05-14T15:55:36.557Z,72.68
2023-05-14T15:58:03.955Z,73.36
2023-05-14T16:00:31.483Z,77.08
2023-05-14T16:03:01.323Z,79.72
2023-05-14T16:05:28.520Z,79.14
2023-05-14T16:07:55.720Z,78.50
2023-05-14T16:10:23.365Z,79.11
2023-05-14T16:12:50.833Z,77.12
2023-05-14T16:15:18.013Z,76.41
2023-05-14T16:17:45.928Z,77.23
2023-05-14T16:20:13.098Z,79.31
2023-05-14T16:22:40.335Z,76.47
2023-05-14T16:25:07.975Z,78.72
2023-05-14T16:27:35.169Z,78.39
2023-05-14T16:30:02.296Z,79.21
2023-05-14T16:32:31.785Z,79.78
2023-05-14T16:34:59.237Z,76.59
2023-05-14T16:37:26.469Z,76.77
2023-05-14T16:39:54.004Z,77.48
2023-05-14T16:42:21.394Z,76.63
2023-05-14T16:44:48.646Z,77.51
2023-05-14T16:47:16.232Z,78.92
2023-05-14T16:49:43.417Z,74.14
2023-05-14T16:52:10.770Z,75.76
2023-05-14T16:54:38.219Z,72.36
2023-05-14T16:57:06.216Z,72.94
2023-05-14T16:59:33.575Z,71.88
2023-05-14T17:02:01.262Z,71.73
2023-05-14T17:04:28.553Z,73.26
2023-05-14T17:06:57.262Z,76.99
2023-05-14T17:09:26.055Z,73.90
2023-05-14T17:11:54.151Z,71.97
2023-05-14T17:14:21.719Z,72.92
2023-05-14T17:16:49.139Z,72.55
2023-05-14T17:19:16.743Z,73.17
2023-05-14T17:21:44.112Z,73.49
2023-05-14T17:24:11.581Z,74.49
2023-05-14T17:26:39.129Z,72.27
2023-05-14T17:29:06.311Z,74.49
2023-05-14T17:31:33.858Z,78.62
2023-05-14T17:34:01.020Z,76.33
2023-05-14T17:36:28.646Z,78.70
2023-05-14T17:38:56.228Z,75.65
2023-05-14T17:41:23.588Z,75.30
2023-05-14T17:43:52.520Z,77.71
2023-05-14T17:46:20.098Z,76.02
2023-05-14T17:48:47.370Z,75.03
2023-05-14T17:51:14.793Z,72.03
2023-05-14T17:53:42.328Z,79.22
2023-05-14T17:56:09.760Z,80.21
2023-05-14T17:58:36.978Z,83.67
2023-05-14T18:01:06.025Z,81.63
2023-05-14T18:03:34.199Z,81.08
2023-05-14T18:06:01.796Z,80.40
2023-05-14T18:08:30.209Z,83.46
2023-05-14T18:11:00.124Z,83.76
2023-05-14T18:13:27.885Z,82.54
2023-05-14T18:15:56.565Z,84.18
2023-05-14T18:18:24.098Z,84.89
2023-05-14T18:20:52.311Z,85.78
2023-05-14T18:23:19.640Z,83.72
2023-05-14T18:25:48.377Z,83.16
2023-05-14T18:28:16.100Z,81.90
2023-05-14T18:30:43.694Z,79.17
2023-05-14T18:33:11.481Z,77.51
2023-05-14T18:35:39.137Z,79.27
2023-05-14T18:38:08.074Z,77.99
2023-05-14T18:40:35.600Z,81.13
2023-05-14T18:43:03.120Z,81.03
2023-05-14T18:45:30.506Z,82.11
2023-05-14T18:47:57.927Z,79.59
2023-05-14T18:50:25.296Z,77.91
2023-05-14T18:52:53.017Z,75.88
2023-05-14T18:55:21.208Z,78.75
2023-05-14T18:57:49.432Z,77.55
2023-05-14T19:00:16.879Z,79.67
2023-05-14T19:02:44.378Z,81.70
2023-05-14T19:05:12.177Z,79.80
2023-05-14T19:07:41.510Z,78.87
2023-05-14T19:10:10.387Z,76.91
2023-05-14T19:12:37.551Z,75.18
2023-05-14T19:15:05.823Z,77.79
2023-05-14T19:17:33.586Z,77.78
2023-05-14T19:20:01.084Z,77.63
2023-05-14T19:22:28.537Z,78.63
2023-05-14T19:24:56.039Z,78.63
2023-05-14T19:27:24.400Z,79.25
2023-05-14T19:29:51.761Z,76.98
2023-05-14T19:32:19.586Z,81.67
2023-05-14T19:34:48.456Z,78.67
2023-05-14T19:37:17.395Z,73.50
2023-05-14T19:39:52.452Z,75.92
2023-05-14T19:42:19.999Z,75.32
2023-05-14T19:44:47.677Z,76.32
2023-05-14T19:47:15.775Z,76.62
2023-05-14T19:49:43.007Z,80.18
2023-05-14T19:52:17.239Z,77.23
2023-05-14T19:54:44.815Z,74.05
2023-05-14T19:57:12.659Z,76.97
2023-05-14T19:59:40.821Z,71.59
2023-05-14T20:02:09.556Z,74.57
2023-05-14T20:04:40.050Z,75.95
2023-05-14T20:07:08.605Z,75.80
2023-05-14T20:09:35.790Z,79.21
2023-05-14T20:12:03.574Z,81.60
2023-05-14T20:14:30.995Z,79.01
2023-05-14T20:17:00.292Z,79.15
2023-05-14T20:19:27.892Z,78.06
2023-05-14T20:21:56.253Z,75.93
2023-05-14T20:24:23.599Z,77.16
2023-05-14T20:26:51.654Z,76.32
2023-05-14T20:29:19.044Z,77.22
2023-05-14T20:31:46.198Z,76.96
2023-05-14T20:34:13.803Z,76.70
2023-05-14T20:36:41.843Z,78.40
2023-05-14T20:39:09.072Z,80.26
2023-05-14T20:41:36.743Z,78.43
2023-05-14T20:44:03.904Z,78.75
2023-05-14T20:46:32.311Z,81.20
2023-05-14T20:49:04.222Z,79.56
2023-05-14T20:51:33.118Z,79.58
2023-05-14T20:54:00.893Z,76.61
2023-05-14T20:56:28.080Z,78.13
2023-05-14T20:58:55.253Z,76.74
2023-05-14T21:01:22.756Z,77.61
2023-05-14T21:03:50.122Z,74.92
2023-05-14T21:06:17.412Z,73.67
2023-05-14T21:08:44.876Z,74.32
2023-05-14T21:11:12.016Z,77.74
2023-05-14T21:13:39.183Z,75.61
2023-05-14T21:16:06.808Z,74.94
2023-05-14T21:18:35.292Z,77.05
2023-05-14T21:21:02.508Z,77.46
2023-05-14T21:23:29.978Z,76.72
2023-05-14T21:25:57.975Z,78.27
2023-05-14T21:28:25.160Z,79.45
2023-05-14T21:30:53.015Z,78.04
2023-05-14T21:33:20.296Z,80.16
2023-05-14T21:35:47.416Z,77.58
2023-05-14T21:38:14.985Z,79.01
2023-05-14T21:40:42.131Z,80.50
2023-05-14T21:43:09.325Z,79.22
2023-05-14T21:45:36.798Z,79.19
2023-05-14T21:48:04.078Z,79.31
2023-05-14T21:50:31.324Z,77.96
2023-05-14T21:52:58.708Z,75.65
2023-05-14T21:55:27.661Z,73.93
2023-05-14T21:57:55.374Z,73.97
2023-05-14T22:00:25.792Z,76.39
2023-05-14T22:02:53.343Z,74.40
2023-05-14T22:05:20.850Z,71.18
2023-05-14T22:07:48.356Z,73.34
2023-05-14T22:10:16.008Z,72.69
2023-05-14T22:12:43.790Z,75.26
2023-05-14T22:15:11.317Z,73.33
2023-05-14T22:17:39.504Z,75.93
2023-05-14T22:20:06.984Z,74.81
2023-05-14T22:22:34.375Z,74.87
2023-05-14T22:25:02.170Z,76.96
2023-05-14T22:27:30.280Z,74.78
2023-05-14T22:29:57.650Z,73.69
2023-05-14T22:32:25.167Z,75.28
2023-05-14T22:34:52.471Z,73.92
2023-05-14T22:37:19.726Z,72.91
2023-05-14T22:39:47.205Z,71.74
2023-05-14T22:42:14.455Z,70.75
2023-05-14T22:44:41.611Z,69.27
2023-05-14T22:47:09.065Z,69.10
2023-05-14T22:49:36.242Z,69.05
2023-05-14T22:52:03.471Z,68.84
2023-05-14T22:54:30.884Z,67.54
2023-05-14T22:56:58.064Z,69.18
2023-05-14T22:59:25.336Z,69.28
2023-05-14T23:01:52.808Z,75.52
2023-05-14T23:04:21.019Z,68.56
2023-05-14T23:06:48.465Z,67.84
2023-05-14T23:09:15.962Z,67.09
2023-05-14T23:11:45.230Z,67.72
2023-05-14T23:14:12.380Z,69.04
2023-05-14T23:16:39.818Z,69.10
2023-05-14T23:19:07.337Z,67.26
2023-05-14T23:21:34.625Z,68.14
2023-05-14T23:24:02.112Z,69.35
2023-05-14T23:26:29.272Z,66.45
2023-05-14T23:28:56.425Z,68.55
2023-05-14T23:31:23.878Z,72.24
2023-05-14T23:33:51.077Z,66.70
2023-05-14T23:36:18.326Z,66.76
2023-05-14T23:38:45.830Z,66.60
2023-05-14T23:41:12.993Z,66.32
2023-05-14T23:43:40.144Z,68.94
2023-05-14T23:46:08.760Z,69.59
2023-05-14T23:48:35.990Z,68.46
2023-05-14T23:51:03.197Z,69.74
2023-05-14T23:53:30.652Z,67.87
2023-05-14T23:55:57.779Z,66.18
2023-05-14T23:58:25.022Z,70.68
